Time;durP1;ratioP1;P1;durP2;ratioP2;P2;SDS_P1;SDS_P2;PMS_P1;PMS_P2;Temp;Humidity;BMP_temperature;BMP_pressure;BME280_temperature;BME280_humidity;BME280_pressure;Samples;Min_cycle;Max_cycle;Signal;HPM_P1;HPM_P2
2022/05/06 00:01:45;;;;;;;;;;;;;;;15.48;62.35;101585.81;4419016;32;19991;-68
2022/05/06 00:04:11;;;;;;;;;;;;;;;15.71;61.83;101589.09;4421745;32;20296;-68
2022/05/06 00:06:38;;;;;;;;;;;;;;;15.45;62.52;101586.72;4417802;32;20034;-68
2022/05/06 00:09:04;;;;;;;;;;;;;;;15.47;62.34;101598.41;4422441;32;19969;-68
2022/05/06 00:11:31;;;;;;;;;;;;;;;15.48;62.39;101588.63;4421770;32;19993;-68
2022/05/06 00:13:57;;;;;;;;;;;;;;;15.48;62.51;101589.44;4417575;32;20379;-68
2022/05/06 00:16:23;;;;;;;;;;;;;;;15.65;61.25;101593.75;4416338;32;21157;-68
2022/05/06 00:18:49;;;;;;;;;;;;;;;15.68;61.17;101589.25;4419483;32;19989;-68
2022/05/06 00:21:15;;;;;;;;;;;;;;;15.79;61.43;101589.69;4419534;32;20114;-68
2022/05/06 00:23:40;;;;;;;;;;;;;;;15.81;60.96;101587.97;4419131;32;20004;-68
2022/05/06 00:26:06;;;;;;;;;;;;;;;15.90;60.73;101590.16;4417755;32;19996;-68
2022/05/06 00:28:32;;;;;;;;;;;;;;;15.95;60.35;101584.69;4419610;32;20301;-68
2022/05/06 00:30:58;;;;;;;;;;;;;;;16.02;60.02;101581.59;4422020;32;20030;-68
2022/05/06 00:33:24;;;;;;;;;;;;;;;16.04;60.02;101575.47;4416931;32;19969;-68
2022/05/06 00:35:53;;;;;;;;;;;;;;;16.12;59.80;101576.84;4422162;32;20297;-68
2022/05/06 00:38:19;;;;;;;;;;;;;;;16.01;59.64;101573.53;4417991;32;19987;-68
2022/05/06 00:40:44;;;;;;;;;;;;;;;16.20;59.60;101572.47;4420568;32;20279;-68
2022/05/06 00:43:10;;;;;;;;;;;;;;;16.09;59.87;101566.38;4420465;32;19988;-68
2022/05/06 00:45:44;;;;;;;;;;;;;;;16.11;59.33;101568.78;4419190;32;19997;-68
2022/05/06 00:48:10;;;;;;;;;;;;;;;16.11;59.05;101563.09;4419044;32;19977;-68
2022/05/06 00:50:35;;;;;;;;;;;;;;;16.08;59.34;101561.97;4417981;32;19976;-68
2022/05/06 00:53:04;;;;;;;;;;;;;;;16.12;58.78;101568.31;4418681;32;20012;-68
2022/05/06 00:55:31;;;;;;;;;;;;;;;16.18;58.80;101562.84;4416034;32;19984;-68
2022/05/06 00:57:57;;;;;;;;;;;;;;;16.20;59.22;101569.66;4418781;32;21090;-68
2022/05/06 01:00:23;;;;;;;;;;;;;;;16.21;59.05;101573.28;4419701;32;19992;-68
2022/05/06 01:02:49;;;;;;;;;;;;;;;16.24;58.86;101564.66;4417771;32;19985;-68
2022/05/06 01:05:15;;;;;;;;;;;;;;;16.19;58.75;101562.37;4420113;32;20073;-68
2022/05/06 01:07:43;;;;;;;;;;;;;;;16.10;58.72;101567.19;4416625;32;20042;-68
2022/05/06 01:10:08;;;;;;;;;;;;;;;16.06;58.42;101566.50;4419108;32;19997;-68
2022/05/06 01:12:34;;;;;;;;;;;;;;;16.11;58.26;101563.09;4419011;32;20075;-68
2022/05/06 01:14:59;;;;;;;;;;;;;;;16.09;57.73;101554.22;4419838;32;20521;-68
2022/05/06 01:17:26;;;;;;;;;;;;;;;16.22;58.02;101554.97;4414763;32;20011;-68
2022/05/06 01:19:51;;;;;;;;;;;;;;;16.26;58.03;101567.03;4419391;32;21047;-68
2022/05/06 01:22:18;;;;;;;;;;;;;;;16.10;58.47;101561.50;4421241;32;20007;-68
2022/05/06 01:24:44;;;;;;;;;;;;;;;16.13;58.53;101549.25;4418287;32;19965;-68
2022/05/06 01:27:20;;;;;;;;;;;;;;;16.13;58.69;101549.25;4417192;32;20554;-68
2022/05/06 01:29:45;;;;;;;;;;;;;;;16.18;58.52;101548.63;4408130;32;19993;-68
2022/05/06 01:32:11;;;;;;;;;;;;;;;16.23;58.45;101545.22;4420107;32;20715;-68
2022/05/06 01:34:39;;;;;;;;;;;;;;;16.25;58.65;101557.72;4418731;32;19967;-68
2022/05/06 01:37:05;;;;;;;;;;;;;;;16.53;57.79;101550.25;4417262;32;20023;-68
2022/05/06 01:39:34;;;;;;;;;;;;;;;16.38;58.25;101549.16;4418256;32;20000;-68
2022/05/06 01:42:04;;;;;;;;;;;;;;;16.54;57.62;101546.97;4420060;32;20378;-68
2022/05/06 01:44:34;;;;;;;;;;;;;;;16.64;57.36;101533.62;4416737;32;20015;-68
2022/05/06 01:47:02;;;;;;;;;;;;;;;16.69;57.24;101536.69;4420675;32;19972;-68
2022/05/06 01:49:30;;;;;;;;;;;;;;;16.72;57.46;101540.66;4419629;32;20384;-68
2022/05/06 01:51:56;;;;;;;;;;;;;;;16.73;57.54;101533.72;4416375;32;20024;-68
2022/05/06 01:54:21;;;;;;;;;;;;;;;16.91;56.81;101528.16;4416288;32;20012;-68
2022/05/06 01:56:47;;;;;;;;;;;;;;;17.07;56.03;101545.81;4420616;32;19968;-68
2022/05/06 01:59:13;;;;;;;;;;;;;;;17.10;56.42;101532.72;4422756;32;21099;-68
2022/05/06 02:01:38;;;;;;;;;;;;;;;17.02;56.63;101542.75;4419861;32;20017;-69
2022/05/06 02:06:49;;;;;;;;;;;;;;;17.25;55.65;101545.13;4419894;32;19988;-69
2022/05/06 02:09:16;;;;;;;;;;;;;;;17.27;55.96;101539.75;4417445;32;19996;-69
2022/05/06 02:11:43;;;;;;;;;;;;;;;17.25;55.86;101542.28;4417443;32;20005;-69
2022/05/06 02:14:08;;;;;;;;;;;;;;;17.25;55.72;101548.75;4419045;32;20046;-69
2022/05/06 02:16:34;;;;;;;;;;;;;;;17.33;55.68;101544.38;4417211;32;19988;-69
2022/05/06 02:18:59;;;;;;;;;;;;;;;17.46;55.88;101547.97;4417932;32;20001;-69
2022/05/06 02:21:25;;;;;;;;;;;;;;;17.52;55.36;101543.25;4418683;32;20028;-69
2022/05/06 02:23:50;;;;;;;;;;;;;;;17.55;55.32;101550.84;4419114;32;19961;-69
2022/05/06 02:26:16;;;;;;;;;;;;;;;17.51;55.55;101546.56;4416702;32;20332;-69
2022/05/06 02:28:41;;;;;;;;;;;;;;;17.57;55.63;101544.69;4418882;32;19968;-69
2022/05/06 02:33:52;;;;;;;;;;;;;;;17.47;56.06;101541.03;4417299;32;20004;-69
2022/05/06 02:36:18;;;;;;;;;;;;;;;17.58;55.72;101541.38;4418267;32;20001;-69
2022/05/06 02:38:44;;;;;;;;;;;;;;;17.62;55.68;101541.25;4417104;32;20016;-69
2022/05/06 02:41:13;;;;;;;;;;;;;;;17.56;55.65;101538.22;4415035;32;19966;-69
2022/05/06 02:43:39;;;;;;;;;;;;;;;17.61;55.69;101531.09;4417374;32;20371;-69
2022/05/06 02:46:05;;;;;;;;;;;;;;;17.72;55.65;101529.44;4419496;32;19992;-69
2022/05/06 02:48:30;;;;;;;;;;;;;;;17.62;55.51;101538.41;4417280;32;20005;-69
2022/05/06 02:50:55;;;;;;;;;;;;;;;17.64;55.52;101542.34;4417855;32;20189;-69
2022/05/06 02:53:21;;;;;;;;;;;;;;;17.55;56.28;101541.53;4418806;32;19997;-69
2022/05/06 02:55:46;;;;;;;;;;;;;;;17.59;56.31;101545.03;4419446;32;20287;-69
2022/05/06 02:58:12;;;;;;;;;;;;;;;17.67;55.97;101532.06;4415273;32;19981;-69
2022/05/06 03:00:38;;;;;;;;;;;;;;;17.58;56.05;101532.06;4415513;32;20020;-69
2022/05/06 03:03:04;;;;;;;;;;;;;;;17.41;56.73;101547.75;4413000;32;20032;-69
2022/05/06 03:05:30;;;;;;;;;;;;;;;17.40;56.79;101544.09;4418646;32;19991;-69
2022/05/06 03:07:56;;;;;;;;;;;;;;;17.53;56.30;101541.22;4417132;32;20190;-69
2022/05/06 03:10:21;;;;;;;;;;;;;;;17.34;56.75;101537.44;4415877;32;20001;-69
2022/05/06 03:12:47;;;;;;;;;;;;;;;17.33;56.81;101537.91;4417923;32;19965;-69
2022/05/06 03:15:13;;;;;;;;;;;;;;;17.27;56.85;101537.72;4419202;32;19958;-69
2022/05/06 03:17:38;;;;;;;;;;;;;;;17.21;57.30;101533.88;4420545;32;20228;-69
2022/05/06 03:20:07;;;;;;;;;;;;;;;17.19;57.21;101535.63;4414695;32;20053;-68
2022/05/06 03:22:41;;;;;;;;;;;;;;;17.21;57.25;101536.72;4415235;32;20032;-69
2022/05/06 03:25:08;;;;;;;;;;;;;;;17.29;57.15;101532.37;4418284;32;19973;-69
2022/05/06 03:30:20;;;;;;;;;;;;;;;17.52;56.54;101529.00;4419461;32;20711;-69
2022/05/06 03:32:46;;;;;;;;;;;;;;;17.35;56.69;101524.81;4417198;32;21025;-69
2022/05/06 03:35:11;;;;;;;;;;;;;;;17.05;57.77;101531.25;4420747;32;19972;-69
2022/05/06 03:37:38;;;;;;;;;;;;;;;17.33;56.89;101523.66;4404770;32;19999;-69
2022/05/06 03:40:05;;;;;;;;;;;;;;;17.22;56.75;101524.13;4422269;32;20340;-69
2022/05/06 03:42:30;;;;;;;;;;;;;;;17.35;56.72;101530.50;4406604;32;19968;-69
2022/05/06 03:44:56;;;;;;;;;;;;;;;17.24;56.67;101532.16;4417950;32;19977;-69
2022/05/06 03:47:22;;;;;;;;;;;;;;;17.32;56.74;101531.44;4420706;32;19997;-69
2022/05/06 03:51:20;;;;;;;;;;;;;;;17.36;56.25;101537.78;4418547;32;20053;-69
2022/05/06 03:52:34;;;;;;;;;;;;;;;17.25;56.70;101531.69;4418725;32;20385;-68
2022/05/06 03:55:00;;;;;;;;;;;;;;;17.20;56.95;101523.78;4420220;32;19964;-69
2022/05/06 03:57:26;;;;;;;;;;;;;;;17.18;56.77;101520.59;4419943;32;20311;-69
2022/05/06 03:59:51;;;;;;;;;;;;;;;17.08;57.14;101516.13;4422595;32;20004;-69
2022/05/06 04:02:17;;;;;;;;;;;;;;;17.16;57.14;101519.47;4417666;32;19997;-68
2022/05/06 04:04:42;;;;;;;;;;;;;;;17.10;57.23;101521.34;4420211;32;19986;-69
2022/05/06 04:07:08;;;;;;;;;;;;;;;17.06;57.45;101506.47;4421966;32;19972;-69
2022/05/06 04:09:33;;;;;;;;;;;;;;;17.15;57.08;101518.69;4420887;32;20005;-69
2022/05/06 04:11:59;;;;;;;;;;;;;;;17.15;57.16;101513.00;4419103;32;19997;-69
2022/05/06 04:14:25;;;;;;;;;;;;;;;17.34;56.34;101508.97;4405417;32;19988;-69
2022/05/06 04:16:52;;;;;;;;;;;;;;;17.12;57.10;101502.53;4419769;32;19981;-69
2022/05/06 04:19:17;;;;;;;;;;;;;;;17.18;56.63;101505.59;4420293;32;20349;-69
2022/05/06 04:24:28;;;;;;;;;;;;;;;17.41;56.49;101500.19;4420555;32;19989;-69
2022/05/06 04:26:54;;;;;;;;;;;;;;;17.24;56.71;101495.16;4417252;32;19997;-69
2022/05/06 04:29:19;;;;;;;;;;;;;;;17.02;57.43;101500.09;4419044;32;20050;-69
2022/05/06 04:31:44;;;;;;;;;;;;;;;17.02;57.34;101503.75;4419195;32;20245;-69
2022/05/06 04:34:10;;;;;;;;;;;;;;;17.13;57.12;101503.34;4420147;32;19953;-69
2022/05/06 04:36:39;;;;;;;;;;;;;;;17.18;56.70;101503.53;4417443;32;19965;-69
2022/05/06 04:39:05;;;;;;;;;;;;;;;17.49;56.03;101510.03;4421434;32;21342;-69
2022/05/06 04:41:31;;;;;;;;;;;;;;;17.24;56.67;101506.56;4421569;32;20036;-69
2022/05/06 04:43:57;;;;;;;;;;;;;;;17.16;56.97;101513.78;4419589;32;19967;-69
2022/05/06 04:46:23;;;;;;;;;;;;;;;17.13;56.78;101511.87;4418404;32;20657;-69
2022/05/06 04:48:49;;;;;;;;;;;;;;;17.15;56.73;101518.69;4407373;32;20015;-69
2022/05/06 04:51:15;;;;;;;;;;;;;;;17.27;56.30;101520.66;4421759;32;20009;-69
2022/05/06 04:53:40;;;;;;;;;;;;;;;17.42;55.89;101527.38;4418091;32;19985;-69
2022/05/06 04:56:05;;;;;;;;;;;;;;;17.26;56.28;101524.75;4417363;32;20046;-69
2022/05/06 04:58:32;;;;;;;;;;;;;;;17.26;56.31;101524.75;4416588;32;19969;-69
2022/05/06 05:00:58;;;;;;;;;;;;;;;17.33;56.06;101517.97;4418172;32;19969;-69
2022/05/06 05:03:24;;;;;;;;;;;;;;;17.40;55.91;101515.66;4419562;32;20028;-69
2022/05/06 05:05:50;;;;;;;;;;;;;;;17.56;55.59;101517.50;4406707;32;20383;-69
2022/05/06 05:08:15;;;;;;;;;;;;;;;17.68;54.80;101505.22;4421995;32;20007;-69
2022/05/06 05:10:41;;;;;;;;;;;;;;;17.57;55.01;101505.66;4417041;32;19949;-69
2022/05/06 05:13:06;;;;;;;;;;;;;;;17.35;55.62;101516.28;4418965;32;19975;-69
2022/05/06 05:15:32;;;;;;;;;;;;;;;17.44;55.43;101519.19;4416663;32;19968;-69
2022/05/06 05:17:58;;;;;;;;;;;;;;;17.51;55.31;101510.38;4417586;32;20004;-69
2022/05/06 05:20:23;;;;;;;;;;;;;;;17.65;54.64;101518.31;4418840;32;20012;-69
2022/05/06 05:22:49;;;;;;;;;;;;;;;17.60;55.09;101518.94;4421354;32;20344;-69
2022/05/06 05:25:14;;;;;;;;;;;;;;;17.76;54.26;101524.38;4419658;32;20021;-68
2022/05/06 05:27:40;;;;;;;;;;;;;;;17.81;54.26;101517.28;4419329;32;19997;-69
2022/05/06 05:30:07;;;;;;;;;;;;;;;17.79;54.04;101505.56;4419684;32;20044;-69
2022/05/06 05:32:33;;;;;;;;;;;;;;;17.76;54.10;101506.50;4416614;32;20353;-69
2022/05/06 05:34:58;;;;;;;;;;;;;;;17.89;53.99;101512.88;4417245;32;20011;-69
2022/05/06 05:37:24;;;;;;;;;;;;;;;17.92;53.62;101496.91;4417157;32;19968;-69
2022/05/06 05:39:50;;;;;;;;;;;;;;;17.76;54.06;101497.94;4416954;32;19968;-69
2022/05/06 05:42:23;;;;;;;;;;;;;;;17.88;53.73;101500.69;4420036;32;19958;-69
2022/05/06 05:50:20;;;;;;;;;;;;;;;18.06;52.61;101482.03;4417749;32;20290;-70
2022/05/06 05:52:45;;;;;;;;;;;;;;;18.03;52.59;101485.81;4416017;32;19987;-70
2022/05/06 05:55:11;;;;;;;;;;;;;;;18.25;51.90;101486.50;4416901;32;20346;-70
2022/05/06 05:57:37;;;;;;;;;;;;;;;18.14;52.14;101484.13;4416846;32;20007;-70
2022/05/06 06:00:05;;;;;;;;;;;;;;;18.17;51.86;101485.22;4416022;32;21281;-70
2022/05/06 06:02:31;;;;;;;;;;;;;;;18.06;52.31;101490.59;4418077;32;20260;-70
2022/05/06 06:04:57;;;;;;;;;;;;;;;17.98;52.20;101492.94;4418873;32;19997;-70
2022/05/06 06:07:23;;;;;;;;;;;;;;;17.87;52.65;101479.19;4418872;32;20446;-70
2022/05/06 06:09:49;;;;;;;;;;;;;;;17.73;53.29;101485.47;4421827;32;21174;-70
2022/05/06 06:12:14;;;;;;;;;;;;;;;18.18;51.95;101481.91;4420381;32;20015;-70
2022/05/06 06:14:40;;;;;;;;;;;;;;;17.99;52.80;101483.16;4415765;32;19993;-70
2022/05/06 06:17:05;;;;;;;;;;;;;;;18.10;52.51;101479.84;4417035;32;20347;-70
2022/05/06 06:19:30;;;;;;;;;;;;;;;18.19;52.58;101482.72;4418267;32;20080;-70
2022/05/06 06:21:56;;;;;;;;;;;;;;;18.60;51.45;101477.22;4420387;32;20319;-70
2022/05/06 06:24:21;;;;;;;;;;;;;;;18.74;51.30;101481.44;4416534;32;19949;-70
2022/05/06 06:26:47;;;;;;;;;;;;;;;18.94;50.68;101487.44;4413525;32;20020;-70
2022/05/06 06:29:12;;;;;;;;;;;;;;;19.14;50.12;101482.78;4417652;32;20310;-70
2022/05/06 06:31:38;;;;;;;;;;;;;;;19.26;49.92;101473.28;4413926;32;20333;-70
2022/05/06 06:34:04;;;;;;;;;;;;;;;18.99;50.46;101467.63;4414542;32;20137;-70
2022/05/06 06:36:29;;;;;;;;;;;;;;;19.19;49.58;101464.22;4411999;32;20111;-70
2022/05/06 06:38:55;;;;;;;;;;;;;;;19.27;49.54;101468.38;4416220;32;20017;-70
2022/05/06 06:41:21;;;;;;;;;;;;;;;19.33;49.16;101461.50;4414119;32;19979;-70
2022/05/06 06:43:48;;;;;;;;;;;;;;;19.16;49.42;101457.44;4411920;32;19979;-70
2022/05/06 06:46:13;;;;;;;;;;;;;;;18.93;49.93;101454.50;4409995;32;19950;-70
2022/05/06 06:48:40;;;;;;;;;;;;;;;18.88;49.93;101466.53;4417409;32;19981;-70
2022/05/06 06:51:05;;;;;;;;;;;;;;;18.79;50.28;101469.41;4406852;32;20020;-70
2022/05/06 06:53:31;;;;;;;;;;;;;;;18.82;50.15;101463.56;4409737;32;20406;-70
2022/05/06 06:55:57;;;;;;;;;;;;;;;19.06;49.33;101463.66;4413226;32;19953;-70
2022/05/06 06:58:22;;;;;;;;;;;;;;;18.79;50.00;101469.41;4414764;32;20017;-70
2022/05/06 07:00:48;;;;;;;;;;;;;;;19.05;49.46;101474.25;4412013;32;20007;-70
2022/05/06 07:03:14;;;;;;;;;;;;;;;19.21;48.98;101473.87;4406057;32;20008;-70
2022/05/06 07:13:56;;;;;;;;;;;;;;;20.35;45.82;101479.19;4415238;32;20031;-71
2022/05/06 07:16:22;;;;;;;;;;;;;;;20.71;44.86;101480.94;4412043;32;19997;-71
2022/05/06 07:18:49;;;;;;;;;;;;;;;20.83;43.75;101488.47;4414572;32;20346;-71
2022/05/06 07:21:15;;;;;;;;;;;;;;;21.05;42.90;101489.66;4411023;32;20035;-71
2022/05/06 07:23:40;;;;;;;;;;;;;;;20.93;42.48;101487.84;4413638;32;20422;-71
2022/05/06 07:26:06;;;;;;;;;;;;;;;20.95;42.24;101495.97;4412357;32;20000;-71
2022/05/06 07:28:33;;;;;;;;;;;;;;;21.05;42.37;101491.75;4409531;32;19993;-71
2022/05/06 07:30:58;;;;;;;;;;;;;;;21.11;42.30;101487.69;4412332;32;20071;-71
2022/05/06 07:33:23;;;;;;;;;;;;;;;21.22;41.90;101487.91;4408950;32;20005;-71
2022/05/06 07:35:49;;;;;;;;;;;;;;;21.09;42.05;101489.47;4410233;32;19996;-71
2022/05/06 07:38:18;;;;;;;;;;;;;;;21.76;41.03;101492.19;4410386;32;20008;-71
2022/05/06 07:40:44;;;;;;;;;;;;;;;21.24;41.94;101485.34;4411415;32;19997;-71
2022/05/06 07:43:09;;;;;;;;;;;;;;;21.31;41.95;101476.34;4408527;32;20068;-70
2022/05/06 07:45:35;;;;;;;;;;;;;;;21.15;42.03;101476.06;4410907;32;20258;-71
2022/05/06 07:48:03;;;;;;;;;;;;;;;21.16;41.81;101480.50;4410221;32;20392;-71
2022/05/06 07:50:30;;;;;;;;;;;;;;;20.95;42.45;101476.75;4409016;32;19954;-71
2022/05/06 07:52:55;;;;;;;;;;;;;;;20.93;42.73;101469.91;4411111;32;20008;-70
2022/05/06 07:55:21;;;;;;;;;;;;;;;20.86;43.65;101468.22;4415223;32;20458;-69
2022/05/06 07:57:48;;;;;;;;;;;;;;;21.07;43.76;101472.81;4414592;32;20040;-70
2022/05/06 08:00:14;;;;;;;;;;;;;;;20.82;43.71;101478.28;4410432;32;19993;-71
2022/05/06 08:05:27;;;;;;;;;;;;;;;20.78;43.74;101464.19;4410717;32;19954;-71
2022/05/06 08:07:54;;;;;;;;;;;;;;;20.56;43.81;101465.84;4392098;32;20241;-70
2022/05/06 08:10:20;;;;;;;;;;;;;;;20.69;44.00;101467.13;4409195;32;20397;-70
2022/05/06 08:12:46;;;;;;;;;;;;;;;20.70;43.86;101457.25;4412455;32;20017;-71
2022/05/06 08:15:12;;;;;;;;;;;;;;;20.95;43.61;101453.84;4413326;32;19997;-71
2022/05/06 08:17:38;;;;;;;;;;;;;;;21.29;43.02;101460.94;4411652;32;19995;-71
2022/05/06 08:20:05;;;;;;;;;;;;;;;21.29;43.06;101460.94;4413252;32;19984;-70
2022/05/06 08:22:31;;;;;;;;;;;;;;;21.16;43.40;101449.81;4408048;32;20000;-70
2022/05/06 08:24:56;;;;;;;;;;;;;;;21.08;43.22;101445.75;4409215;32;20056;-70
2022/05/06 08:27:22;;;;;;;;;;;;;;;21.17;43.25;101445.66;4412391;32;20367;-71
2022/05/06 08:29:48;;;;;;;;;;;;;;;21.32;43.04;101439.91;4395736;32;19968;-71
2022/05/06 08:32:13;;;;;;;;;;;;;;;21.98;41.69;101440.13;4396558;32;20685;-71
2022/05/06 08:34:39;;;;;;;;;;;;;;;21.64;42.54;101445.34;4412860;32;20246;-71
2022/05/06 08:37:05;;;;;;;;;;;;;;;22.22;41.31;101444.38;4411053;32;20038;-72
2022/05/06 08:39:31;;;;;;;;;;;;;;;22.55;40.77;101438.25;4411447;32;19984;-71
2022/05/06 08:41:57;;;;;;;;;;;;;;;22.54;40.52;101439.53;4408455;32;20009;-70
2022/05/06 08:52:43;;;;;;;;;;;;;;;22.80;40.33;101435.38;4411502;32;21358;-71
2022/05/06 08:55:08;;;;;;;;;;;;;;;22.72;40.47;101444.97;4413993;32;20010;-72
2022/05/06 08:57:35;;;;;;;;;;;;;;;22.71;40.18;101444.19;4397788;32;20001;-71
2022/05/06 09:00:01;;;;;;;;;;;;;;;22.70;40.18;101445.47;4411621;32;20421;-70
2022/05/06 09:02:26;;;;;;;;;;;;;;;23.17;39.75;101441.97;4407280;32;20033;-71
2022/05/06 09:04:52;;;;;;;;;;;;;;;22.85;40.29;101440.41;4409978;32;20149;-71
2022/05/06 09:07:21;;;;;;;;;;;;;;;22.94;40.09;101445.97;4408359;32;20048;-71
2022/05/06 09:10:07;;;;;;;;;;;;;;;22.86;40.40;101452.69;4406902;32;20613;-71
2022/05/06 09:12:48;;;;;;;;;;;;;;;22.82;40.65;101447.16;4409763;32;19952;-70
2022/05/06 09:18:01;;;;;;;;;;;;;;;23.14;40.13;101442.25;4407774;32;20050;-70
2022/05/06 09:20:27;;;;;;;;;;;;;;;23.65;39.53;101438.47;4406884;32;20074;-70
2022/05/06 09:22:53;;;;;;;;;;;;;;;23.72;39.72;101444.53;4395986;32;20033;-71
2022/05/06 09:25:40;;;;;;;;;;;;;;;23.63;40.31;101455.44;4409036;32;19970;-70
2022/05/06 09:28:07;;;;;;;;;;;;;;;23.75;40.37;101457.88;4410696;32;19981;-71
2022/05/06 09:30:33;;;;;;;;;;;;;;;24.04;39.97;101437.41;4410666;32;20017;-70
2022/05/06 09:33:00;;;;;;;;;;;;;;;24.42;39.41;101454.03;4408505;32;20018;-71
2022/05/06 09:35:26;;;;;;;;;;;;;;;24.37;39.27;101462.66;4408432;32;20030;-71
2022/05/06 09:37:52;;;;;;;;;;;;;;;24.17;39.80;101457.88;4411454;32;20473;-71
2022/05/06 09:40:21;;;;;;;;;;;;;;;24.59;39.23;101454.91;4409859;32;19957;-71
2022/05/06 09:45:37;;;;;;;;;;;;;;;24.68;39.38;101468.28;3944615;32;15746300;-71
2022/05/06 09:48:04;;;;;;;;;;;;;;;24.68;39.38;101468.28;4418363;32;20392;-72
2022/05/06 09:50:32;;;;;;;;;;;;;;;24.27;39.84;101473.59;4416500;32;20116;-72
2022/05/06 09:52:59;;;;;;;;;;;;;;;24.36;39.80;101473.38;4403969;32;20463;-72
2022/05/06 09:55:26;;;;;;;;;;;;;;;24.58;39.40;101469.81;4413517;32;20579;-72
2022/05/06 09:57:52;;;;;;;;;;;;;;;24.45;39.79;101467.37;4416789;32;20057;-72
2022/05/06 10:00:17;;;;;;;;;;;;;;;24.85;39.31;101477.75;4419184;32;19965;-72
2022/05/06 10:02:43;;;;;;;;;;;;;;;25.02;39.02;101481.44;4412318;32;20012;-72
2022/05/06 10:05:09;;;;;;;;;;;;;;;24.78;39.10;101475.38;4413746;32;19961;-71
2022/05/06 10:07:36;;;;;;;;;;;;;;;24.72;39.16;101483.19;4413735;32;19954;-71
2022/05/06 10:10:05;;;;;;;;;;;;;;;24.96;38.64;101478.56;4413199;32;19946;-71
2022/05/06 10:12:36;;;;;;;;;;;;;;;24.97;38.53;101480.13;4414710;32;19971;-71
2022/05/06 10:15:03;;;;;;;;;;;;;;;24.88;38.52;101473.84;4418741;32;20035;-71
2022/05/06 10:17:49;;;;;;;;;;;;;;;25.20;37.46;101480.94;4415276;32;20029;-71
2022/05/06 10:20:35;;;;;;;;;;;;;;;24.82;37.48;101478.81;4414525;32;20042;-71
2022/05/06 10:23:02;;;;;;;;;;;;;;;24.64;38.31;101485.00;4403485;32;20393;-70
2022/05/06 10:34:02;;;;;;;;;;;;;;;25.83;36.99;101473.31;4402512;32;20087;-72
2022/05/06 10:49:53;;;;;;;;;;;;;;;25.11;38.21;101479.09;3944037;32;15729248;-72
2022/05/06 10:55:00;;;;;;;;;;;;;;;25.32;38.15;101474.66;3940986;32;15724365;-72
2022/05/06 10:57:26;;;;;;;;;;;;;;;25.32;38.15;101474.66;4417009;32;19977;-72
2022/05/06 11:05:05;;;;;;;;;;;;;;;25.73;36.93;101488.53;3944026;32;15727212;-72
2022/05/06 11:07:31;;;;;;;;;;;;;;;25.73;36.93;101488.53;4422222;32;19985;-72
2022/05/06 11:09:57;;;;;;;;;;;;;;;24.87;38.86;101483.78;4410306;32;19989;-72
2022/05/06 11:12:30;;;;;;;;;;;;;;;24.19;40.04;101481.16;4423391;32;20007;-72
2022/05/06 11:14:56;;;;;;;;;;;;;;;23.65;41.26;101488.09;4424205;32;20334;-72
2022/05/06 11:17:22;;;;;;;;;;;;;;;23.21;42.14;101488.50;4410986;32;20801;-72
2022/05/06 11:19:48;;;;;;;;;;;;;;;23.24;42.42;101478.13;4427508;32;20023;-72
2022/05/06 11:22:14;;;;;;;;;;;;;;;22.79;43.26;101474.00;4419752;32;20005;-73
2022/05/06 11:24:40;;;;;;;;;;;;;;;23.01;42.90;101473.44;4423778;32;20347;-72
2022/05/06 11:27:21;;;;;;;;;;;;;;;23.02;43.04;101475.81;4427512;32;20303;-72
2022/05/06 11:29:49;;;;;;;;;;;;;;;23.60;41.96;101480.25;4422701;32;20006;-72
2022/05/06 11:32:15;;;;;;;;;;;;;;;23.73;41.53;101469.09;4419636;32;20015;-70
2022/05/06 11:34:46;;;;;;;;;;;;;;;24.03;40.87;101470.34;4424003;32;20370;-72
2022/05/06 11:37:19;;;;;;;;;;;;;;;24.03;41.02;101470.34;4419797;32;20112;-72
2022/05/06 11:39:45;;;;;;;;;;;;;;;23.85;41.05;101476.50;4421655;32;20054;-71
2022/05/06 11:42:19;;;;;;;;;;;;;;;23.62;41.56;101477.63;4420675;32;20005;-71
2022/05/06 11:47:40;;;;;;;;;;;;;;;23.35;42.50;101473.25;4423763;32;20043;-71
2022/05/06 11:50:06;;;;;;;;;;;;;;;23.49;42.36;101471.53;4425846;32;20390;-71
2022/05/06 11:52:33;;;;;;;;;;;;;;;23.47;42.50;101474.91;4423886;32;20375;-71
2022/05/06 11:54:59;;;;;;;;;;;;;;;23.15;43.15;101464.69;4420148;32;20081;-71
2022/05/06 11:57:24;;;;;;;;;;;;;;;22.93;43.79;101473.13;4416264;32;20404;-71
2022/05/06 11:59:50;;;;;;;;;;;;;;;22.71;44.46;101472.88;4416819;32;21364;-71
2022/05/06 12:02:16;;;;;;;;;;;;;;;22.51;44.76;101472.09;4419566;32;20912;-71
2022/05/06 12:04:42;;;;;;;;;;;;;;;22.27;45.31;101474.41;4418012;32;19982;-71
2022/05/06 12:07:07;;;;;;;;;;;;;;;21.94;45.86;101468.22;4421303;32;20015;-71
2022/05/06 12:09:48;;;;;;;;;;;;;;;21.80;46.54;101469.06;4417659;32;20364;-71
2022/05/06 12:12:13;;;;;;;;;;;;;;;21.54;47.19;101463.19;4423446;32;20011;-71
2022/05/06 12:14:39;;;;;;;;;;;;;;;21.49;47.35;101467.53;4417084;32;19992;-72
2022/05/06 12:17:13;;;;;;;;;;;;;;;21.52;47.46;101471.47;4398077;32;20325;-71
2022/05/06 12:19:43;;;;;;;;;;;;;;;21.85;46.89;101466.28;4410183;32;19996;-72
2022/05/06 12:24:50;;;;;;;;;;;;;;;22.85;43.85;101462.56;3946062;32;15722502;-71
2022/05/06 12:27:31;;;;;;;;;;;;;;;22.85;43.85;101462.56;4415007;32;20317;-72
2022/05/06 12:29:58;;;;;;;;;;;;;;;22.43;43.88;101463.13;4414889;32;20016;-72
2022/05/06 12:32:24;;;;;;;;;;;;;;;22.39;44.14;101467.50;4419818;32;19969;-72
2022/05/06 12:35:09;;;;;;;;;;;;;;;22.21;44.22;101464.94;4418564;32;20019;-73
2022/05/06 12:37:36;;;;;;;;;;;;;;;21.90;44.79;101461.91;4418633;32;20013;-72
2022/05/06 12:40:02;;;;;;;;;;;;;;;22.29;43.99;101455.41;4418528;32;19996;-72
2022/05/06 12:42:28;;;;;;;;;;;;;;;22.60;43.20;101452.66;4418200;32;20378;-72
2022/05/06 12:44:54;;;;;;;;;;;;;;;22.41;43.36;101444.84;4419843;32;20345;-71
2022/05/06 12:50:07;;;;;;;;;;;;;;;22.14;44.41;101453.87;4421406;32;20005;-71
2022/05/06 12:52:35;;;;;;;;;;;;;;;22.11;45.03;101449.94;4420361;32;20474;-72
2022/05/06 12:55:01;;;;;;;;;;;;;;;22.15;44.57;101446.87;4420746;32;20000;-72
2022/05/06 12:57:28;;;;;;;;;;;;;;;22.10;44.26;101441.84;4421231;32;20395;-71
2022/05/06 12:59:54;;;;;;;;;;;;;;;21.77;45.20;101450.78;4405165;32;20015;-71
2022/05/06 13:02:20;;;;;;;;;;;;;;;21.89;45.24;101446.78;4415114;32;20012;-72
2022/05/06 13:04:46;;;;;;;;;;;;;;;21.94;45.01;101459.63;4405176;32;19996;-72
2022/05/06 13:07:12;;;;;;;;;;;;;;;21.80;45.10;101451.84;4416603;32;20030;-71
2022/05/06 13:09:38;;;;;;;;;;;;;;;21.87;45.21;101457.94;4408530;32;20004;-71
2022/05/06 13:12:04;;;;;;;;;;;;;;;21.73;45.00;101461.66;4420059;32;20736;-71
2022/05/06 13:14:29;;;;;;;;;;;;;;;21.56;45.04;101454.88;4397910;32;20013;-71
2022/05/06 13:16:55;;;;;;;;;;;;;;;21.35;45.51;101456.09;4418215;32;19989;-71
2022/05/06 13:19:20;;;;;;;;;;;;;;;21.25;45.76;101468.94;4404051;32;19973;-71
2022/05/06 13:21:47;;;;;;;;;;;;;;;21.27;45.59;101457.78;4417003;32;20004;-71
2022/05/06 13:24:15;;;;;;;;;;;;;;;21.14;45.67;101452.38;4418327;32;20023;-71
2022/05/06 13:26:41;;;;;;;;;;;;;;;21.14;45.86;101460.19;4419235;32;20011;-71
2022/05/06 13:29:07;;;;;;;;;;;;;;;21.02;46.37;101450.59;4409526;32;19954;-71
2022/05/06 13:31:33;;;;;;;;;;;;;;;20.94;46.77;101445.72;4420154;32;19953;-71
2022/05/06 13:33:59;;;;;;;;;;;;;;;20.99;46.97;101450.81;4407546;32;20379;-70
2022/05/06 13:36:28;;;;;;;;;;;;;;;21.16;46.89;101454.72;4409028;32;20001;-71
2022/05/06 13:38:53;;;;;;;;;;;;;;;20.99;47.46;101459.41;4409319;32;20422;-72
2022/05/06 13:41:19;;;;;;;;;;;;;;;21.11;47.37;101459.06;4409178;32;20008;-70
2022/05/06 13:43:44;;;;;;;;;;;;;;;20.92;47.36;101443.37;4410950;32;21024;-70
2022/05/06 13:46:10;;;;;;;;;;;;;;;21.24;46.81;101447.34;4407165;32;20027;-71
2022/05/06 13:48:37;;;;;;;;;;;;;;;21.26;46.94;101450.50;4414294;32;19969;-69
2022/05/06 13:51:04;;;;;;;;;;;;;;;21.49;45.75;101453.22;4413222;32;21176;-70
2022/05/06 13:53:33;;;;;;;;;;;;;;;21.61;45.40;101451.31;4394474;32;20025;-72